Route Details

Aircraft Information
Group: Narrowbodies
Types: B738, B752
Route Data
Distance: 963nm
Duration: 3h 04m
Origin METAR: TIST 072353Z 07013G19KT 10SM CLR 25/21 A3008 RMK AO2 SLP186 60000 T02500211 10283 20250 53012
Dest. METAR: KMIA 072353Z 10010KT 10SM SCT040 SCT250 24/15 A3023 RMK AO2 SLP236 T02390150 10267 20233 53008 $
Freight Data
(for Feb 8, 2023)
Load Factor:
44%
Manifested Cargo: 26,380lbs
Financial History
Total Freight: 36,138lbs
Average Load: 0lbs/flt
Fuel Used: 62,490lbs
Avg. Fuel Used: 0lbs/flt
Fuel Expense: $24,979
Avg. Fuel Expense: $0
Avg. Fuel Cost: $0/lbs
Total Gross Income: $88,467
Pilot Pay: $885
Total Expenses: $45,264
Total Revenue: $14,886
Average Revenue: $0

Capitol Logistics 432




TIST
Cyril E King Airport
Charlotte Amalie, VI
KMIA
Miami International Airport
Miami, US

Activity Log

Date Flight Route Aircraft Duration
05/21/2022 CPX344 PALCO7 PALCO RTE6 SJU DCT ACONY Y308 MADIZ VIICE2 B752 2h 49m
10/19/2021 CPX344 PALCO7 PALCO RTE6 SJU ACONY Y308 FOWEE FLIPR7 B738 2h 56m
09/14/2021 CPX344 PALCO7 PALCO RTE6 SJU ACONY Y308 FOWEE FLIPR7 B738 2h 48m
08/11/2021 CPX344 PALCO7 PALCO RTE6 SJU ACONY Y308 FOWEE FOWEE1 B738 2h 45m
08/09/2021 CPX344 PALCO7 PALCO RTE6 SJU ACONY Y308 FOWEE FOWEE1 B738 2h 39m